createdAt,value
2022-08-31T00:04:04.064Z,48.72
2022-08-31T00:09:07.472Z,48.92
2022-08-31T00:14:13.183Z,48.96
2022-08-31T00:19:16.228Z,49.00
2022-08-31T00:24:18.493Z,49.42
2022-08-31T00:29:20.571Z,49.45
2022-08-31T00:34:23.017Z,49.76
2022-08-31T00:39:24.880Z,50.19
2022-08-31T00:44:26.859Z,50.42
2022-08-31T00:49:31.349Z,50.72
2022-08-31T00:54:39.323Z,50.53
2022-08-31T00:59:43.650Z,50.69
2022-08-31T01:04:45.562Z,50.56
2022-08-31T01:09:55.547Z,51.02
2022-08-31T01:14:59.753Z,51.63
2022-08-31T01:20:51.972Z,51.73
2022-08-31T01:25:55.490Z,51.84
2022-08-31T01:31:06.744Z,52.25
2022-08-31T01:36:13.152Z,52.21
2022-08-31T01:41:17.875Z,52.54
2022-08-31T01:46:19.862Z,53.78
2022-08-31T01:51:22.503Z,54.64
2022-08-31T01:56:33.484Z,54.85
2022-08-31T02:01:44.328Z,54.70
2022-08-31T02:06:49.767Z,54.60
2022-08-31T02:11:53.444Z,54.72
2022-08-31T02:16:55.622Z,55.22
2022-08-31T02:21:57.560Z,55.43
2022-08-31T02:26:59.423Z,55.50
2022-08-31T02:32:01.659Z,55.55
2022-08-31T02:37:04.000Z,55.73
2022-08-31T02:42:07.036Z,55.90
2022-08-31T02:47:10.319Z,55.93
2022-08-31T02:52:20.075Z,55.82
2022-08-31T02:57:22.126Z,55.55
2022-08-31T03:02:31.854Z,54.97
2022-08-31T03:07:35.488Z,54.69
2022-08-31T03:12:37.942Z,54.76
2022-08-31T03:17:41.110Z,55.14
2022-08-31T03:22:45.671Z,55.35
2022-08-31T03:27:48.831Z,55.55
2022-08-31T03:32:51.167Z,55.69
2022-08-31T03:37:54.434Z,56.00
2022-08-31T03:43:00.693Z,55.80
2022-08-31T03:48:11.433Z,55.62
2022-08-31T03:53:22.492Z,55.78
2022-08-31T03:58:27.396Z,55.86
2022-08-31T04:03:29.779Z,55.55
2022-08-31T04:09:00.417Z,55.63
2022-08-31T04:14:34.525Z,55.71
2022-08-31T04:19:55.188Z,56.06
2022-08-31T04:25:16.451Z,57.18
2022-08-31T04:30:24.329Z,58.04
2022-08-31T04:35:26.321Z,58.11
2022-08-31T04:40:28.788Z,58.20
2022-08-31T04:45:32.365Z,58.46
2022-08-31T04:50:35.358Z,60.07
2022-08-31T04:55:43.988Z,60.52
2022-08-31T05:00:47.809Z,60.09
2022-08-31T05:06:15.368Z,60.55
2022-08-31T05:11:23.009Z,60.76
2022-08-31T05:16:30.700Z,60.61
2022-08-31T05:21:39.387Z,60.45
2022-08-31T05:26:48.379Z,60.59
2022-08-31T05:31:52.638Z,60.68
2022-08-31T05:36:56.812Z,60.70
2022-08-31T05:41:59.313Z,60.61
2022-08-31T05:47:04.242Z,60.60
2022-08-31T05:52:06.913Z,60.72
2022-08-31T05:57:09.173Z,60.46
2022-08-31T06:02:11.919Z,60.03
2022-08-31T06:07:14.626Z,59.65
2022-08-31T06:12:23.094Z,59.27
2022-08-31T06:17:25.172Z,58.96
2022-08-31T06:22:27.279Z,58.81
2022-08-31T06:27:31.083Z,58.54
2022-08-31T06:32:33.091Z,58.39
2022-08-31T06:37:37.769Z,58.20
2022-08-31T06:42:42.713Z,57.91
2022-08-31T06:48:03.969Z,57.84
2022-08-31T06:53:06.128Z,57.58
2022-08-31T06:58:38.138Z,56.18
2022-08-31T07:04:09.556Z,55.64
2022-08-31T07:09:16.062Z,55.67
2022-08-31T07:14:24.531Z,55.36
2022-08-31T07:19:28.411Z,55.10
2022-08-31T07:24:35.366Z,54.93
2022-08-31T07:29:42.768Z,55.10
2022-08-31T07:34:50.486Z,55.14
2022-08-31T07:40:28.230Z,55.06
2022-08-31T07:45:34.447Z,55.01
2022-08-31T07:50:44.488Z,55.10
2022-08-31T07:56:00.489Z,55.15
2022-08-31T08:01:06.972Z,54.92
2022-08-31T08:06:12.398Z,54.57
2022-08-31T08:11:32.426Z,54.53
2022-08-31T08:16:51.247Z,54.52
2022-08-31T08:22:05.969Z,54.16
2022-08-31T08:27:28.097Z,54.07
2022-08-31T08:32:42.045Z,53.96
2022-08-31T08:37:58.303Z,53.57
2022-08-31T08:43:03.012Z,53.47
2022-08-31T08:48:11.438Z,53.23
2022-08-31T08:53:15.362Z,53.22
2022-08-31T08:58:32.923Z,52.94
2022-08-31T09:03:44.405Z,52.58
2022-08-31T09:09:09.117Z,52.31
2022-08-31T09:14:22.316Z,52.16
2022-08-31T09:19:24.432Z,51.96
2022-08-31T09:24:30.283Z,51.87
2022-08-31T09:30:01.901Z,51.63
2022-08-31T09:35:21.977Z,51.50
2022-08-31T09:40:39.286Z,51.45
2022-08-31T09:46:02.851Z,51.29
2022-08-31T09:51:04.972Z,51.20
2022-08-31T09:56:15.511Z,50.57
2022-08-31T10:01:32.137Z,50.57
2022-08-31T10:07:00.280Z,50.51
2022-08-31T10:12:07.727Z,50.38
2022-08-31T10:17:19.216Z,50.21
2022-08-31T10:22:29.599Z,49.87
2022-08-31T10:27:38.853Z,50.05
2022-08-31T10:33:08.319Z,49.42
2022-08-31T10:38:34.700Z,49.14
2022-08-31T10:43:46.181Z,48.39
2022-08-31T10:48:53.299Z,48.31
2022-08-31T10:54:12.377Z,47.96
2022-08-31T11:00:00.573Z,47.47
2022-08-31T11:05:03.658Z,47.22
2022-08-31T11:10:27.467Z,46.51
2022-08-31T11:15:54.821Z,46.30
2022-08-31T11:21:02.552Z,46.20
2022-08-31T11:26:24.322Z,45.90
2022-08-31T11:31:30.530Z,45.40
2022-08-31T11:37:04.035Z,45.22
2022-08-31T11:42:33.352Z,44.79
2022-08-31T11:47:37.787Z,44.91
2022-08-31T11:52:48.370Z,44.29
2022-08-31T11:58:10.166Z,44.38
2022-08-31T12:03:33.948Z,44.55
2022-08-31T12:08:52.454Z,44.18
2022-08-31T12:14:02.452Z,43.87
2022-08-31T12:19:13.601Z,44.07
2022-08-31T12:24:21.342Z,44.02
2022-08-31T12:29:28.088Z,43.25
2022-08-31T12:34:31.702Z,43.21
2022-08-31T12:39:34.589Z,43.22
2022-08-31T12:44:50.354Z,42.81
2022-08-31T12:50:17.821Z,42.42
2022-08-31T12:55:34.677Z,42.21
2022-08-31T13:00:39.563Z,41.64
2022-08-31T13:05:41.578Z,41.85
2022-08-31T13:10:45.550Z,41.58
2022-08-31T13:15:47.496Z,41.46
2022-08-31T13:21:02.423Z,41.47
2022-08-31T13:26:21.315Z,41.58
2022-08-31T13:31:53.257Z,41.98
2022-08-31T13:36:59.853Z,41.87
2022-08-31T13:42:10.647Z,41.67
2022-08-31T13:47:27.191Z,41.34
2022-08-31T13:52:30.837Z,41.07
2022-08-31T13:57:35.949Z,41.07
2022-08-31T14:02:39.275Z,40.57
2022-08-31T14:07:43.459Z,40.54
2022-08-31T14:12:54.381Z,40.33
2022-08-31T14:23:27.715Z,40.06
2022-08-31T14:28:50.076Z,39.69
2022-08-31T14:34:22.661Z,39.85
2022-08-31T14:39:45.645Z,40.13
2022-08-31T14:44:59.197Z,40.16
2022-08-31T14:50:07.218Z,40.43
2022-08-31T14:55:11.373Z,40.08
2022-08-31T15:00:22.035Z,40.11
2022-08-31T15:05:25.598Z,40.31
2022-08-31T15:10:27.991Z,40.65
2022-08-31T15:15:30.026Z,40.61
2022-08-31T15:20:40.005Z,40.62
2022-08-31T15:25:42.056Z,40.63
2022-08-31T15:30:43.977Z,40.85
2022-08-31T15:35:46.906Z,41.10
2022-08-31T15:40:49.046Z,41.32
2022-08-31T15:45:51.301Z,41.06
2022-08-31T15:51:00.551Z,41.21
2022-08-31T15:56:08.311Z,41.31
2022-08-31T16:01:16.590Z,41.30
2022-08-31T16:06:21.803Z,41.66
2022-08-31T16:11:27.102Z,41.56
2022-08-31T16:16:34.224Z,41.42
2022-08-31T16:21:45.219Z,41.71
2022-08-31T16:26:51.024Z,41.75
2022-08-31T16:31:53.280Z,41.85
2022-08-31T16:36:56.749Z,41.70
2022-08-31T16:41:58.601Z,41.69
2022-08-31T16:47:00.975Z,41.93
2022-08-31T16:52:11.096Z,41.84
2022-08-31T16:57:15.635Z,42.01
2022-08-31T17:02:19.037Z,42.03
2022-08-31T17:07:24.299Z,41.93
2022-08-31T17:12:27.489Z,42.22
2022-08-31T17:17:30.720Z,42.16
2022-08-31T17:22:35.125Z,42.13
2022-08-31T17:27:37.104Z,42.45
2022-08-31T17:32:39.448Z,42.37
2022-08-31T17:37:47.963Z,42.65
2022-08-31T17:42:55.012Z,42.80
2022-08-31T17:47:59.826Z,42.88
2022-08-31T17:53:01.820Z,43.00
2022-08-31T17:58:05.893Z,43.09
2022-08-31T18:03:07.737Z,43.40
2022-08-31T18:08:09.654Z,43.52
2022-08-31T18:13:11.808Z,43.83
2022-08-31T18:18:15.031Z,44.01
2022-08-31T18:23:17.348Z,44.23
2022-08-31T18:28:21.071Z,44.21
2022-08-31T18:33:24.719Z,44.43
2022-08-31T18:38:26.886Z,44.65
2022-08-31T18:43:47.509Z,44.90
2022-08-31T18:49:01.043Z,44.99
2022-08-31T18:54:09.482Z,45.26
2022-08-31T18:59:12.117Z,45.43
2022-08-31T19:04:15.814Z,45.36
2022-08-31T19:09:22.660Z,45.50
2022-08-31T19:14:26.473Z,45.77
2022-08-31T19:19:30.555Z,46.12
2022-08-31T19:24:33.132Z,46.31
2022-08-31T19:29:35.341Z,46.32
2022-08-31T19:34:43.236Z,46.51
2022-08-31T19:39:46.167Z,46.46
2022-08-31T19:45:22.729Z,46.73
2022-08-31T19:50:15.090Z,46.83
2022-08-31T19:55:17.066Z,46.86
2022-08-31T20:00:20.070Z,47.10
2022-08-31T20:05:21.953Z,47.20
2022-08-31T20:10:23.950Z,47.28
2022-08-31T20:15:31.682Z,47.14
2022-08-31T20:20:45.791Z,47.05
2022-08-31T20:25:50.150Z,47.46
2022-08-31T20:30:59.139Z,48.00
2022-08-31T20:36:02.362Z,48.38
2022-08-31T20:41:04.454Z,48.49
2022-08-31T20:46:30.277Z,48.88
2022-08-31T20:51:37.874Z,48.97
2022-08-31T20:56:43.210Z,49.10
2022-08-31T21:01:46.099Z,49.24
2022-08-31T21:06:48.056Z,49.57
2022-08-31T21:11:50.265Z,49.48
2022-08-31T21:16:52.969Z,49.12
2022-08-31T21:22:01.316Z,48.92
2022-08-31T21:27:05.833Z,49.46
2022-08-31T21:32:09.685Z,50.10
2022-08-31T21:37:11.785Z,50.29
2022-08-31T21:42:13.649Z,50.51
2022-08-31T21:47:15.609Z,50.77
2022-08-31T21:52:17.607Z,50.64
2022-08-31T21:57:21.465Z,51.15
2022-08-31T22:02:23.462Z,51.86
2022-08-31T22:07:25.681Z,52.15
2022-08-31T22:12:29.095Z,52.01
2022-08-31T22:17:49.051Z,52.21
2022-08-31T22:22:53.748Z,52.44
2022-08-31T22:27:55.632Z,52.48
2022-08-31T22:32:58.625Z,52.23
2022-08-31T22:38:00.515Z,52.62
2022-08-31T22:43:05.687Z,52.41
2022-08-31T22:48:07.765Z,52.33
2022-08-31T22:53:09.668Z,52.30
2022-08-31T22:58:12.890Z,52.15
2022-08-31T23:03:16.338Z,52.37
2022-08-31T23:08:18.250Z,52.43
2022-08-31T23:13:40.116Z,52.54
2022-08-31T23:18:44.482Z,52.92
2022-08-31T23:23:53.188Z,53.00
2022-08-31T23:28:59.689Z,53.26
2022-08-31T23:34:01.566Z,53.34
2022-08-31T23:39:05.807Z,53.30
2022-08-31T23:44:09.304Z,53.36
2022-08-31T23:49:14.648Z,53.92
2022-08-31T23:54:18.069Z,54.39
2022-08-31T23:59:20.121Z,54.80
